Time;durP1;ratioP1;P1;durP2;ratioP2;P2;SDS_P1;SDS_P2;PMS_P1;PMS_P2;Temp;Humidity;BMP_temperature;BMP_pressure;BME280_temperature;BME280_humidity;BME280_pressure;Samples;Min_cycle;Max_cycle;Signal;HPM_P1;HPM_P2
2021/07/23 00:02:13;;;;;;;;;24.00;18.25;;;;;22.80;51.31;101041.91;4974053;28;66869;-61
2021/07/23 00:04:38;;;;;;;;;17.75;16.75;;;;;22.77;50.81;101037.81;4974688;28;47353;-61
2021/07/23 00:07:04;;;;;;;;;18.50;16.75;;;;;22.76;50.75;101038.03;4974724;28;45565;-62
2021/07/23 00:09:29;;;;;;;;;22.25;19.25;;;;;22.74;51.33;101034.72;4973912;28;72334;-61
2021/07/23 00:11:55;;;;;;;;;16.50;15.00;;;;;22.72;51.63;101028.75;4973500;28;66783;-61
2021/07/23 00:14:20;;;;;;;;;17.50;16.25;;;;;22.70;51.42;101030.81;4974056;28;64839;-62
2021/07/23 00:16:45;;;;;;;;;19.25;15.25;;;;;22.67;51.52;101032.88;4976281;28;45161;-61
2021/07/23 00:19:11;;;;;;;;;13.25;13.00;;;;;22.64;51.62;101027.06;4974365;28;45361;-61
2021/07/23 00:21:36;;;;;;;;;17.25;14.25;;;;;22.62;51.56;101029.13;4976563;28;45316;-61
2021/07/23 00:24:01;;;;;;;;;16.50;15.75;;;;;22.57;51.32;101024.41;4973675;28;68793;-61
2021/07/23 00:26:27;;;;;;;;;17.00;15.00;;;;;22.51;51.83;101022.53;4974518;28;45338;-61
2021/07/23 00:28:52;;;;;;;;;19.75;16.25;;;;;22.51;51.63;101022.53;4973717;28;70556;-61
2021/07/23 00:31:18;;;;;;;;;16.00;15.25;;;;;22.50;52.04;101023.56;4973998;28;57154;-61
2021/07/23 00:33:43;;;;;;;;;19.50;18.00;;;;;22.45;51.72;101016.16;4973595;28;68327;-61
2021/07/23 00:36:08;;;;;;;;;17.00;15.50;;;;;22.45;52.10;101018.84;4973734;28;66391;-61
2021/07/23 00:38:34;;;;;;;;;14.75;13.25;;;;;22.45;51.69;101018.00;4973177;28;74513;-61
2021/07/23 00:40:59;;;;;;;;;16.00;14.25;;;;;22.42;52.45;101015.69;4973108;28;45452;-61
2021/07/23 00:43:24;;;;;;;;;14.50;13.00;;;;;22.42;52.00;101010.34;4974531;28;45778;-60
2021/07/23 00:45:50;;;;;;;;;15.50;12.25;;;;;22.41;52.27;101014.03;4974356;28;45480;-60
2021/07/23 00:48:15;;;;;;;;;18.25;14.25;;;;;22.42;52.66;101007.66;4973098;28;74708;-61
2021/07/23 00:50:41;;;;;;;;;16.00;13.00;;;;;22.38;52.19;101000.03;4972018;28;70333;-61
2021/07/23 00:53:06;;;;;;;;;16.25;14.50;;;;;22.34;52.71;101004.13;4973987;28;49160;-61
2021/07/23 00:55:31;;;;;;;;;15.50;14.25;;;;;22.30;52.52;101002.91;4973542;28;64811;-61
2021/07/23 00:57:58;;;;;;;;;13.00;11.75;;;;;22.27;52.52;100997.13;4955821;28;71424;-60
2021/07/23 01:00:24;;;;;;;;;15.75;14.25;;;;;22.23;52.34;101002.88;4956718;28;45405;-61
2021/07/23 01:02:50;;;;;;;;;17.25;12.25;;;;;22.23;52.61;100996.72;4956659;28;45416;-61
2021/07/23 01:05:15;;;;;;;;;13.50;13.50;;;;;22.21;52.79;100996.91;4975881;27;45741;-61
2021/07/23 01:07:41;;;;;;;;;16.00;13.00;;;;;22.20;52.99;100997.13;4972973;28;71240;-61
2021/07/23 01:10:06;;;;;;;;;11.50;10.50;;;;;22.16;52.83;100987.84;4973498;28;54694;-60
2021/07/23 01:12:33;;;;;;;;;13.50;12.00;;;;;22.15;53.13;100991.56;4974069;28;45379;-62
2021/07/23 01:14:59;;;;;;;;;16.50;13.50;;;;;22.12;53.25;100981.25;4973993;28;45216;-61
2021/07/23 01:17:24;;;;;;;;;13.50;12.25;;;;;22.09;53.30;100983.31;4972539;28;46135;-60
2021/07/23 01:19:52;;;;;;;;;18.50;12.25;;;;;22.09;53.41;100988.66;4972294;28;49908;-61
2021/07/23 01:22:19;;;;;;;;;14.50;12.25;;;;;22.05;52.94;100981.22;4973863;28;45370;-60
2021/07/23 01:24:44;;;;;;;;;17.75;13.00;;;;;22.01;53.64;100977.28;4957699;28;45293;-61
2021/07/23 01:27:09;;;;;;;;;14.50;11.50;;;;;22.00;53.49;100979.16;4958071;28;74548;-60
2021/07/23 01:29:35;;;;;;;;;18.25;13.50;;;;;21.99;53.76;100977.50;4974496;28;73195;-60
2021/07/23 01:32:00;;;;;;;;;10.25;10.25;;;;;21.97;53.84;100984.91;4975972;28;69740;-61
2021/07/23 01:34:25;;;;;;;;;16.25;12.00;;;;;21.93;53.65;100978.31;4975841;28;67510;-61
2021/07/23 01:36:51;;;;;;;;;12.00;9.75;;;;;21.89;53.90;100975.22;4976470;28;45737;-61
2021/07/23 01:39:18;;;;;;;;;13.25;13.25;;;;;21.84;53.75;100972.31;4975973;28;59091;-60
2021/07/23 01:41:43;;;;;;;;;12.50;10.25;;;;;21.83;54.39;100977.84;4959540;28;45513;-60
2021/07/23 01:44:09;;;;;;;;;13.50;12.00;;;;;21.75;54.18;100970.84;4975237;28;45578;-61
2021/07/23 01:46:34;;;;;;;;;13.50;10.00;;;;;21.71;54.41;100972.25;4976300;28;45453;-61
2021/07/23 01:49:00;;;;;;;;;14.00;13.00;;;;;21.65;54.22;100968.53;4976115;28;52943;-61
2021/07/23 01:51:26;;;;;;;;;13.25;13.00;;;;;21.61;54.93;100977.97;4974374;28;69410;-62
2021/07/23 01:53:51;;;;;;;;;16.00;11.50;;;;;21.57;55.09;100971.34;4976580;28;45462;-60
2021/07/23 01:56:16;;;;;;;;;17.75;13.75;;;;;21.49;55.00;100975.84;4975239;28;73645;-61
2021/07/23 01:58:42;;;;;;;;;16.25;14.50;;;;;21.44;55.06;100975.59;4975390;28;72558;-60
2021/07/23 02:01:07;;;;;;;;;17.50;15.50;;;;;21.40;55.04;100963.66;4975239;28;45348;-61
2021/07/23 02:03:34;;;;;;;;;17.25;13.25;;;;;21.38;55.10;100956.88;4975962;28;49890;-60
2021/07/23 02:05:59;;;;;;;;;13.25;12.50;;;;;21.35;55.03;100956.25;4976317;28;45255;-61
2021/07/23 02:08:24;;;;;;;;;14.75;12.25;;;;;21.38;55.11;100959.53;4975253;28;69298;-61
2021/07/23 02:10:50;;;;;;;;;14.50;12.25;;;;;21.36;55.50;100965.06;4975810;28;53096;-61
2021/07/23 02:13:16;;;;;;;;;16.50;13.50;;;;;21.34;55.15;100959.09;4976303;28;45578;-61
2021/07/23 02:15:42;;;;;;;;;14.50;12.25;;;;;21.34;55.66;100951.91;4975421;28;60839;-60
2021/07/23 02:18:07;;;;;;;;;16.00;14.25;;;;;21.34;55.16;100959.09;4976201;28;45824;-61
2021/07/23 02:20:32;;;;;;;;;14.75;12.00;;;;;21.31;55.27;100954.16;4974718;28;48054;-62
2021/07/23 02:22:58;;;;;;;;;14.50;13.00;;;;;21.30;55.68;100947.16;4975207;28;64641;-61
2021/07/23 02:25:24;;;;;;;;;14.00;13.25;;;;;21.27;55.64;100936.84;4975180;28;69400;-61
2021/07/23 02:27:49;;;;;;;;;14.25;14.00;;;;;21.24;55.49;100942.59;4976027;28;45354;-61
2021/07/23 02:30:15;;;;;;;;;14.25;13.25;;;;;21.25;55.87;100933.53;4976054;28;45728;-61
2021/07/23 02:32:40;;;;;;;;;17.50;15.00;;;;;21.23;55.69;100943.59;4975153;28;66360;-61
2021/07/23 02:35:06;;;;;;;;;12.75;11.50;;;;;21.19;56.02;100940.50;4974484;28;75614;-61
2021/07/23 02:37:33;;;;;;;;;15.25;14.00;;;;;21.13;55.95;100936.78;4975799;28;45401;-60
2021/07/23 02:39:59;;;;;;;;;13.00;13.00;;;;;21.07;55.82;100942.91;4975901;28;45464;-61
2021/07/23 02:42:24;;;;;;;;;18.75;15.75;;;;;21.05;56.35;100945.78;4974804;28;45326;-61
2021/07/23 02:44:50;;;;;;;;;18.25;15.50;;;;;21.02;56.45;100946.16;4975002;28;70222;-61
2021/07/23 02:47:15;;;;;;;;;14.25;12.75;;;;;20.99;56.81;100943.06;4975705;28;45373;-61
2021/07/23 02:49:41;;;;;;;;;16.00;13.75;;;;;20.93;56.53;100944.66;4975837;28;45298;-61
2021/07/23 02:52:06;;;;;;;;;17.75;13.75;;;;;20.90;56.74;100943.22;4974950;28;63730;-61
2021/07/23 02:54:31;;;;;;;;;13.25;12.50;;;;;20.85;57.10;100945.63;4975270;28;55180;-60
2021/07/23 02:56:57;;;;;;;;;13.50;12.75;;;;;20.82;57.00;100937.19;4974710;28;72104;-60
2021/07/23 02:59:22;;;;;;;;;18.50;13.75;;;;;20.82;57.45;100942.53;4974926;28;64058;-61
2021/07/23 03:01:48;;;;;;;;;11.50;11.00;;;;;20.80;57.32;100941.91;4974748;28;69661;-61
2021/07/23 03:04:13;;;;;;;;;15.00;12.50;;;;;20.75;57.47;100934.44;4975528;28;45351;-61
2021/07/23 03:06:38;;;;;;;;;13.00;11.75;;;;;20.74;57.30;100938.13;4974559;28;71496;-61
2021/07/23 03:09:04;;;;;;;;;15.50;13.00;;;;;20.74;57.58;100927.44;4973401;28;68094;-60
2021/07/23 03:11:29;;;;;;;;;18.50;14.75;;;;;20.73;57.41;100920.44;4974587;28;67863;-61
2021/07/23 03:13:55;;;;;;;;;18.50;13.50;;;;;20.74;57.72;100928.28;4974422;28;72833;-61
2021/07/23 03:16:21;;;;;;;;;17.25;13.25;;;;;20.75;57.22;100926.41;4975336;28;45750;-60
2021/07/23 03:18:46;;;;;;;;;20.00;15.00;;;;;20.78;57.17;100926.06;4975065;28;48936;-61
2021/07/23 03:21:12;;;;;;;;;16.50;15.25;;;;;20.75;57.52;100929.09;4974970;28;51445;-60
2021/07/23 03:23:37;;;;;;;;;19.50;16.00;;;;;20.71;57.24;100918.00;4975378;28;45234;-61
2021/07/23 03:26:08;;;;;;;;;14.75;14.25;;;;;20.68;57.42;100918.38;4974464;28;66600;-60
2021/07/23 03:28:34;;;;;;;;;15.25;14.00;;;;;20.63;57.74;100920.78;4974357;28;68730;-61
2021/07/23 03:30:59;;;;;;;;;16.75;15.50;;;;;20.59;57.39;100914.19;4975332;28;45319;-61
2021/07/23 03:33:25;;;;;;;;;15.50;15.00;;;;;20.51;57.87;100914.31;4973875;28;47218;-61
2021/07/23 03:35:50;;;;;;;;;16.75;13.75;;;;;20.43;57.86;100909.97;4974316;28;69335;-61
2021/07/23 03:38:15;;;;;;;;;18.00;16.75;;;;;20.38;57.98;100913.22;4974530;28;67432;-61
2021/07/23 03:40:41;;;;;;;;;19.25;17.00;;;;;20.35;58.24;100918.94;4974212;28;66576;-61
2021/07/23 03:43:06;;;;;;;;;18.25;16.00;;;;;20.33;58.50;100920.13;4974151;28;74788;-61
2021/07/23 03:45:31;;;;;;;;;14.50;13.50;;;;;20.31;58.49;100915.00;4974056;28;71895;-60
2021/07/23 03:47:57;;;;;;;;;14.25;13.75;;;;;20.29;58.70;100915.16;4973217;28;67745;-61
2021/07/23 03:50:22;;;;;;;;;19.50;17.25;;;;;20.28;58.68;100913.53;4975116;28;45405;-61
2021/07/23 03:52:48;;;;;;;;;21.00;19.25;;;;;20.29;58.39;100912.50;4974911;28;46316;-61
2021/07/23 03:55:13;;;;;;;;;17.00;15.75;;;;;20.29;58.71;100914.34;4973853;28;73053;-61
2021/07/23 03:57:39;;;;;;;;;19.00;16.25;;;;;20.30;58.40;100916.00;4975165;28;45326;-61
2021/07/23 04:00:07;;;;;;;;;18.25;15.25;;;;;20.30;58.59;100903.47;4974983;28;45190;-60
2021/07/23 04:02:32;;;;;;;;;16.75;15.25;;;;;20.31;58.59;100897.13;4974862;28;46185;-61
2021/07/23 04:04:58;;;;;;;;;22.25;18.00;;;;;20.33;58.41;100899.63;4974305;28;59474;-60
2021/07/23 04:07:23;;;;;;;;;18.25;15.50;;;;;20.31;58.27;100891.78;4973915;28;69379;-61
2021/07/23 04:09:49;;;;;;;;;20.25;16.50;;;;;20.30;58.52;100881.31;4973781;28;70477;-61
2021/07/23 04:12:14;;;;;;;;;19.50;16.50;;;;;20.28;58.68;100876.16;4974723;28;46059;-61
2021/07/23 04:14:40;;;;;;;;;18.75;15.25;;;;;20.28;58.44;100868.16;4973829;28;69215;-60
2021/07/23 04:17:05;;;;;;;;;17.25;15.50;;;;;20.26;58.69;100862.19;4974019;28;62536;-61
2021/07/23 04:19:30;;;;;;;;;17.00;14.25;;;;;20.22;59.15;100852.91;4974729;28;45523;-61
2021/07/23 04:21:56;;;;;;;;;16.75;15.00;;;;;20.19;58.74;100845.28;4976457;28;45330;-61
2021/07/23 04:24:21;;;;;;;;;17.25;16.75;;;;;20.18;59.13;100840.97;4973850;28;64521;-61
2021/07/23 04:26:48;;;;;;;;;21.00;18.50;;;;;20.19;58.87;100839.16;4973933;28;65174;-61
2021/07/23 04:29:13;;;;;;;;;18.25;15.25;;;;;20.17;58.99;100845.50;4975043;28;45269;-60
2021/07/23 04:31:38;;;;;;;;;19.50;17.75;;;;;20.16;59.03;100851.00;4973451;28;74242;-60
2021/07/23 04:34:04;;;;;;;;;19.75;18.00;;;;;20.15;59.33;100857.38;4973513;28;69991;-61
2021/07/23 04:36:29;;;;;;;;;23.50;19.00;;;;;20.15;59.07;100857.38;4973588;28;69018;-61
2021/07/23 04:38:55;;;;;;;;;20.25;18.50;;;;;20.12;59.01;100849.78;4973642;28;64547;-60
2021/07/23 04:41:21;;;;;;;;;17.00;14.75;;;;;20.10;59.36;100844.63;4974239;28;45350;-61
2021/07/23 04:43:46;;;;;;;;;17.75;16.00;;;;;20.11;59.19;100848.13;4974317;28;45232;-60
2021/07/23 04:46:12;;;;;;;;;18.00;17.00;;;;;20.09;59.28;100842.97;4973597;28;68175;-61
2021/07/23 04:48:37;;;;;;;;;17.75;15.25;;;;;20.12;59.36;100842.59;4974288;28;45604;-61
2021/07/23 04:51:03;;;;;;;;;20.00;18.50;;;;;20.14;58.90;100847.72;4974042;28;45999;-60
2021/07/23 04:53:29;;;;;;;;;16.25;15.50;;;;;20.16;58.99;100853.69;4974200;28;45790;-61
2021/07/23 04:55:58;;;;;;;;;22.00;19.75;;;;;20.18;59.00;100851.66;4974441;28;45370;-60
2021/07/23 04:58:24;;;;;;;;;15.00;12.25;;;;;20.21;59.02;100851.25;4974318;28;45406;-61
2021/07/23 05:00:50;;;;;;;;;18.50;16.00;;;;;20.25;58.58;100849.88;4973073;28;72356;-61
2021/07/23 05:03:15;;;;;;;;;16.25;15.50;;;;;20.30;58.76;100852.78;4973923;28;45901;-61
2021/07/23 05:05:41;;;;;;;;;16.75;15.00;;;;;20.33;58.74;100851.59;4973224;28;65575;-60
2021/07/23 05:08:09;;;;;;;;;17.50;16.50;;;;;20.36;58.47;100850.38;4973889;28;45496;-61
2021/07/23 05:10:34;;;;;;;;;17.50;14.50;;;;;20.39;58.52;100858.81;4973743;28;47069;-60
2021/07/23 05:13:00;;;;;;;;;19.75;14.50;;;;;20.43;58.65;100853.91;4973552;28;49731;-61
2021/07/23 05:15:25;;;;;;;;;22.50;19.00;;;;;20.48;58.51;100850.66;4973085;28;63149;-61
2021/07/23 05:17:51;;;;;;;;;20.00;17.75;;;;;20.53;58.18;100859.75;4971730;28;70509;-61
2021/07/23 05:20:16;;;;;;;;;19.25;16.50;;;;;20.57;58.17;100858.34;4972574;28;45898;-61
2021/07/23 05:22:41;;;;;;;;;20.75;17.00;;;;;20.61;57.99;100864.09;4972646;28;70886;-61
2021/07/23 05:25:08;;;;;;;;;21.75;17.75;;;;;20.64;57.96;100863.72;4973797;28;45318;-61
2021/07/23 05:27:34;;;;;;;;;20.75;16.75;;;;;20.68;58.09;100861.47;4975502;27;45486;-61
2021/07/23 05:29:59;;;;;;;;;16.25;14.50;;;;;20.71;57.72;100859.25;4973640;28;45260;-61
2021/07/23 05:32:25;;;;;;;;;22.25;22.25;;;;;20.73;57.97;100864.38;4973432;28;45252;-60
2021/07/23 05:34:50;;;;;;;;;23.00;20.25;;;;;20.77;57.64;100857.66;4972630;28;69333;-60
2021/07/23 05:37:15;;;;;;;;;15.75;14.25;;;;;20.80;57.46;100854.59;4972460;28;70200;-61
2021/07/23 05:39:43;;;;;;;;;15.50;15.00;;;;;20.86;57.25;100853.00;4972438;28;73742;-61
2021/07/23 05:42:09;;;;;;;;;21.75;19.75;;;;;20.90;57.32;100852.41;4973435;28;45758;-61
2021/07/23 05:44:34;;;;;;;;;18.00;18.00;;;;;20.95;57.20;100851.00;4975184;28;45367;-61
2021/07/23 05:47:00;;;;;;;;;17.25;14.75;;;;;21.00;57.36;100845.88;4972469;28;66319;-61
2021/07/23 05:49:26;;;;;;;;;19.00;18.75;;;;;21.04;57.00;100841.78;4972901;28;54352;-61
2021/07/23 05:51:52;;;;;;;;;16.50;13.75;;;;;21.10;56.97;100843.69;4973164;28;45267;-62
2021/07/23 05:54:17;;;;;;;;;22.75;22.00;;;;;21.14;56.85;100838.75;4972416;28;65127;-61
2021/07/23 05:56:42;;;;;;;;;20.25;18.75;;;;;21.17;56.37;100838.34;4972921;28;50211;-60
2021/07/23 05:59:08;;;;;;;;;21.75;15.75;;;;;21.17;56.22;100841.88;4972127;28;74462;-61
2021/07/23 06:01:33;;;;;;;;;19.50;17.75;;;;;21.21;56.50;100836.94;4972272;28;71030;-61
2021/07/23 06:03:59;;;;;;;;;21.25;16.50;;;;;21.22;56.12;100829.72;4973217;28;45372;-61
2021/07/23 06:06:25;;;;;;;;;19.75;17.00;;;;;21.26;56.42;100830.97;4972926;28;45565;-61
2021/07/23 06:08:50;;;;;;;;;20.50;15.50;;;;;21.30;56.25;100830.41;4972435;28;45989;-60
2021/07/23 06:11:15;;;;;;;;;16.75;14.75;;;;;21.37;56.12;100830.41;4973682;28;70263;-61
2021/07/23 06:13:41;;;;;;;;;17.00;15.25;;;;;21.47;55.67;100824.66;4975404;28;64579;-61
2021/07/23 06:16:07;;;;;;;;;24.75;17.50;;;;;21.53;55.46;100825.72;4975227;28;66832;-62
2021/07/23 06:18:33;;;;;;;;;18.50;15.75;;;;;21.60;55.71;100818.56;4975848;28;45923;-61
2021/07/23 06:20:58;;;;;;;;;17.75;13.50;;;;;21.67;55.60;100818.59;4975795;28;45209;-61
2021/07/23 06:23:24;;;;;;;;;19.00;15.50;;;;;21.73;55.11;100813.25;4975886;28;45459;-61
2021/07/23 06:25:49;;;;;;;;;21.50;15.75;;;;;21.82;54.92;100815.72;4976028;28;45371;-61
2021/07/23 06:28:14;;;;;;;;;19.00;17.00;;;;;21.89;54.88;100816.56;4974775;28;68292;-60
2021/07/23 06:30:40;;;;;;;;;19.00;17.25;;;;;21.94;54.87;100809.59;4974947;28;69356;-60
2021/07/23 06:33:06;;;;;;;;;22.25;18.50;;;;;22.00;54.38;100801.72;4975878;28;45430;-61
2021/07/23 06:35:32;;;;;;;;;19.75;19.25;;;;;22.03;54.81;100798.66;4975894;28;45417;-61
2021/07/23 06:37:58;;;;;;;;;17.50;15.75;;;;;22.09;54.55;100797.81;4975741;28;46169;-61
2021/07/23 06:40:23;;;;;;;;;18.75;18.00;;;;;22.14;54.21;100792.69;4975512;28;49981;-61
2021/07/23 06:42:49;;;;;;;;;18.50;16.00;;;;;22.21;54.14;100790.84;4975805;28;45353;-61
2021/07/23 06:45:14;;;;;;;;;16.25;15.00;;;;;22.29;53.81;100788.97;4975084;28;68691;-60
2021/07/23 06:47:39;;;;;;;;;16.25;16.25;;;;;22.37;54.12;100789.56;4975056;28;58554;-60
2021/07/23 06:50:05;;;;;;;;;18.25;18.25;;;;;22.47;54.36;100783.84;4975582;28;45350;-61
2021/07/23 06:52:30;;;;;;;;;20.50;18.75;;;;;22.60;53.67;100785.66;4974540;28;45376;-62
2021/07/23 06:54:56;;;;;;;;;16.75;15.25;;;;;22.72;53.59;100787.69;4974719;28;67882;-62
2021/07/23 06:57:21;;;;;;;;;16.75;14.25;;;;;22.82;53.76;100782.69;4974936;28;65899;-61
2021/07/23 06:59:48;;;;;;;;;18.00;17.50;;;;;22.92;53.00;100785.75;4975509;28;45330;-61
2021/07/23 07:02:13;;;;;;;;;16.25;15.25;;;;;23.04;53.26;100782.41;4975276;28;45311;-60
2021/07/23 07:04:39;;;;;;;;;21.25;20.25;;;;;23.16;53.26;100786.06;4974614;28;65854;-61
2021/07/23 07:07:07;;;;;;;;;21.75;17.50;;;;;23.29;52.38;100784.38;4974672;28;52401;-61
2021/07/23 07:09:33;;;;;;;;;16.50;15.75;;;;;23.40;51.94;100783.69;4975067;28;45904;-62
2021/07/23 07:11:58;;;;;;;;;23.00;17.50;;;;;23.52;52.22;100787.31;4974928;28;56550;-61
2021/07/23 07:14:25;;;;;;;;;21.25;18.00;;;;;23.65;51.48;100785.59;4974386;28;45289;-62
2021/07/23 07:16:51;;;;;;;;;16.50;14.00;;;;;23.73;52.11;100785.34;4975233;28;45389;-60
2021/07/23 07:19:16;;;;;;;;;20.75;19.75;;;;;23.86;51.13;100782.53;4974911;28;51585;-61
2021/07/23 07:21:48;;;;;;;;;19.00;15.50;;;;;23.95;51.32;100780.41;4974143;28;45288;-60
2021/07/23 07:24:17;;;;;;;;;16.50;16.00;;;;;24.05;50.91;100776.44;4975189;28;45315;-61
2021/07/23 07:26:44;;;;;;;;;18.25;16.75;;;;;24.15;50.66;100769.53;4975012;28;45255;-61
2021/07/23 07:29:09;;;;;;;;;19.00;17.25;;;;;24.26;50.44;100769.84;4975091;28;45533;-61
2021/07/23 07:31:34;;;;;;;;;19.00;17.75;;;;;24.37;49.95;100766.44;4974574;28;55273;-60
2021/07/23 07:34:00;;;;;;;;;17.50;15.50;;;;;24.51;49.87;100760.91;4975183;28;45541;-61
2021/07/23 07:36:25;;;;;;;;;15.00;15.00;;;;;24.61;49.69;100761.19;4973941;28;75565;-60
2021/07/23 07:38:51;;;;;;;;;16.50;16.00;;;;;24.72;49.63;100760.47;4973036;28;70126;-62
2021/07/23 07:41:17;;;;;;;;;14.75;14.25;;;;;24.84;48.96;100762.44;4978283;28;45421;-61
2021/07/23 07:43:42;;;;;;;;;22.25;18.25;;;;;24.95;48.15;100763.50;5014289;28;45587;-62
2021/07/23 07:46:07;;;;;;;;;17.00;17.00;;;;;25.05;48.28;100766.50;4973129;28;64299;-61
2021/07/23 07:48:33;;;;;;;;;19.50;16.00;;;;;25.16;47.81;100772.94;5060663;28;73033;-61
2021/07/23 07:50:58;;;;;;;;;18.00;17.00;;;;;25.30;47.65;100778.97;4993615;28;69301;-61
2021/07/23 07:53:23;;;;;;;;;19.75;19.75;;;;;25.38;47.27;100775.16;4974101;28;67181;-61
2021/07/23 07:55:49;;;;;;;;;18.75;17.75;;;;;25.50;47.28;100773.31;4973392;28;75360;-62
2021/07/23 07:58:14;;;;;;;;;19.50;16.50;;;;;25.55;47.27;100776.13;4979689;28;46408;-60
2021/07/23 08:00:40;;;;;;;;;20.00;17.50;;;;;25.65;47.09;100777.44;4971661;28;45405;-62
2021/07/23 08:03:05;;;;;;;;;18.00;17.50;;;;;25.76;46.84;100776.66;4992333;28;70465;-61
2021/07/23 08:05:31;;;;;;;;;21.00;19.50;;;;;25.88;46.09;100773.97;4980308;28;45970;-61
2021/07/23 08:07:59;;;;;;;;;19.75;17.50;;;;;25.93;46.21;100769.56;4976896;28;73259;-61
2021/07/23 08:10:27;;;;;;;;;21.00;18.00;;;;;26.04;46.29;100767.91;4977557;28;45544;-62
2021/07/23 08:12:53;;;;;;;;;19.50;17.00;;;;;26.17;45.74;100769.56;4972804;28;45524;-61
2021/07/23 08:15:19;;;;;;;;;20.75;17.25;;;;;26.32;45.64;100763.69;4974072;28;52308;-62
2021/07/23 08:17:45;;;;;;;;;15.00;14.00;;;;;26.47;45.46;100759.69;4979148;28;45462;-60
2021/07/23 08:20:11;;;;;;;;;19.50;18.50;;;;;26.64;45.02;100757.06;4998515;28;69389;-61
2021/07/23 08:22:36;;;;;;;;;21.75;17.75;;;;;26.75;45.22;100756.22;4988150;28;45440;-60
2021/07/23 08:25:01;;;;;;;;;22.50;18.50;;;;;26.90;44.94;100747.66;4979153;28;64718;-61
2021/07/23 08:27:28;;;;;;;;;20.00;18.25;;;;;27.05;44.07;100749.00;4976632;28;73169;-61
2021/07/23 08:29:53;;;;;;;;;17.00;16.00;;;;;27.19;44.17;100746.81;4981100;27;45510;-61
2021/07/23 08:32:19;;;;;;;;;19.50;17.25;;;;;27.31;43.54;100750.28;4972473;28;45549;-61
2021/07/23 08:34:44;;;;;;;;;20.75;17.00;;;;;27.40;43.19;100739.91;4989970;28;46098;-62
2021/07/23 08:37:09;;;;;;;;;20.00;16.75;;;;;27.51;43.82;100744.44;4995861;28;45423;-60
2021/07/23 08:39:35;;;;;;;;;21.25;19.00;;;;;27.66;43.54;100737.66;4973186;28;63911;-61
2021/07/23 08:42:23;;;;;;;;;20.00;17.50;;;;;27.83;43.02;100740.34;5009536;28;70591;-61
2021/07/23 08:44:49;;;;;;;;;20.00;18.00;;;;;27.99;43.18;100731.41;5009638;28;46188;-61
2021/07/23 08:47:14;;;;;;;;;19.50;19.50;;;;;28.13;42.53;100734.59;4973881;28;69672;-61
2021/07/23 08:49:39;;;;;;;;;21.75;17.75;;;;;28.27;41.82;100736.94;4971328;28;69188;-62
2021/07/23 08:52:05;;;;;;;;;21.50;20.00;;;;;28.37;40.98;100728.94;4976394;28;70371;-61
2021/07/23 08:54:32;;;;;;;;;15.75;15.00;;;;;28.42;40.80;100723.63;4973013;28;49484;-62
2021/07/23 08:56:57;;;;;;;;;19.25;18.50;;;;;28.48;40.31;100721.81;4980060;28;45447;-62
2021/07/23 08:59:22;;;;;;;;;19.50;17.75;;;;;28.50;40.84;100724.25;4971059;28;69397;-61
2021/07/23 09:01:57;;;;;;;;;17.75;17.75;;;;;28.54;41.41;100714.56;4976296;28;56692;-61
2021/07/23 09:04:28;;;;;;;;;19.00;17.75;;;;;28.63;41.04;100704.13;4985835;28;47672;-62
2021/07/23 09:07:12;;;;;;;;;22.25;17.25;;;;;28.77;39.82;100708.09;4985610;28;45603;-61
2021/07/23 09:09:38;;;;;;;;;18.50;17.50;;;;;28.91;39.40;100711.19;4980813;28;46112;-60
2021/07/23 09:12:03;;;;;;;;;21.25;19.50;;;;;29.04;38.71;100710.00;4971197;28;45653;-61
2021/07/23 09:14:29;;;;;;;;;18.50;16.75;;;;;29.17;38.33;100717.69;4971721;28;46230;-61
2021/07/23 09:16:54;;;;;;;;;16.25;15.50;;;;;29.28;38.19;100713.19;4973209;28;58653;-61
2021/07/23 09:19:20;;;;;;;;;19.75;18.50;;;;;29.38;37.82;100717.88;4971430;28;45459;-61
2021/07/23 09:21:46;;;;;;;;;17.00;14.75;;;;;29.49;37.56;100705.25;4971405;28;45209;-61
2021/07/23 09:24:12;;;;;;;;;20.75;17.75;;;;;29.62;37.50;100704.00;5003206;28;45987;-61
2021/07/23 09:26:44;;;;;;;;;19.50;18.25;;;;;29.75;37.32;100698.13;4997918;28;45564;-61
2021/07/23 09:29:09;;;;;;;;;22.50;17.50;;;;;29.87;36.45;100695.22;4976522;28;45494;-62
2021/07/23 09:31:35;;;;;;;;;18.00;15.25;;;;;29.99;37.02;100689.63;4976572;28;45521;-61
2021/07/23 09:34:02;;;;;;;;;17.25;16.75;;;;;30.16;36.31;100685.91;4970720;28;45902;-62
2021/07/23 09:36:28;;;;;;;;;17.00;16.00;;;;;30.26;35.38;100682.44;4977996;28;45649;-61
2021/07/23 09:39:11;;;;;;;;;20.00;19.25;;;;;30.33;35.44;100672.16;4985545;28;45496;-62
2021/07/23 09:41:36;;;;;;;;;21.25;16.50;;;;;30.39;35.22;100672.97;4975877;28;45432;-61
2021/07/23 09:44:07;;;;;;;;;18.75;18.50;;;;;30.50;34.81;100669.22;4979101;28;45359;-60
2021/07/23 09:46:39;;;;;;;;;17.00;13.75;;;;;30.64;34.33;100675.81;4976075;28;45567;-62
2021/07/23 09:49:17;;;;;;;;;16.75;14.75;;;;;30.77;34.39;100666.31;4991794;28;46488;-61
2021/07/23 09:51:42;;;;;;;;;15.75;15.00;;;;;30.91;34.18;100668.53;4971413;28;46005;-61
2021/07/23 09:54:07;;;;;;;;;19.75;16.25;;;;;30.99;34.28;100653.59;4965333;27;75892;-61
2021/07/23 09:56:33;;;;;;;;;14.50;14.50;;;;;31.05;33.95;100657.94;4972202;28;73336;-60
2021/07/23 09:59:01;;;;;;;;;21.25;16.25;;;;;31.12;34.34;100655.78;4980479;28;45514;-61
2021/07/23 10:01:29;;;;;;;;;18.25;16.75;;;;;31.17;33.90;100658.50;4974449;28;45683;-60
2021/07/23 10:03:58;;;;;;;;;19.25;16.00;;;;;31.17;33.94;100647.66;4979621;28;45470;-60
2021/07/23 10:06:27;;;;;;;;;17.00;16.25;;;;;31.16;33.62;100640.59;4973970;28;46200;-61
2021/07/23 10:08:55;;;;;;;;;16.75;16.00;;;;;31.14;33.13;100640.03;4992367;28;45428;-62
2021/07/23 10:11:20;;;;;;;;;20.25;17.75;;;;;31.12;33.86;100625.91;4974550;28;45350;-61
2021/07/23 10:13:45;;;;;;;;;24.25;22.75;;;;;31.11;34.43;100628.88;4972987;28;45557;-62
2021/07/23 10:16:11;;;;;;;;;18.50;18.25;;;;;31.09;33.62;100621.84;4971518;28;73118;-61
2021/07/23 10:18:38;;;;;;;;;18.50;17.00;;;;;31.07;33.57;100617.78;5029070;28;65627;-61
2021/07/23 10:21:03;;;;;;;;;18.25;15.25;;;;;31.06;34.56;100611.53;4990317;27;45419;-61
2021/07/23 10:23:28;;;;;;;;;12.75;12.50;;;;;31.08;34.63;100600.41;4988368;28;59637;-62
2021/07/23 10:25:54;;;;;;;;;17.00;14.00;;;;;31.10;34.26;100595.53;4965696;28;45467;-61
2021/07/23 10:28:42;;;;;;;;;18.50;15.25;;;;;31.13;34.39;100586.00;4972702;28;69319;-61
2021/07/23 10:31:16;;;;;;;;;16.25;16.25;;;;;31.13;33.87;100591.44;4979105;28;45450;-61
2021/07/23 10:33:58;;;;;;;;;19.25;16.75;;;;;31.07;34.49;100590.66;4978177;28;46173;-62
2021/07/23 10:36:26;;;;;;;;;17.00;13.75;;;;;30.99;34.68;100589.31;4977199;28;46074;-61
2021/07/23 10:39:06;;;;;;;;;19.00;16.75;;;;;30.93;34.51;100583.06;4980789;27;45525;-62
2021/07/23 10:41:42;;;;;;;;;14.00;14.00;;;;;30.86;34.32;100577.09;4972973;28;45380;-61
2021/07/23 10:44:26;;;;;;;;;16.00;15.00;;;;;30.83;34.54;100566.78;4970092;28;46110;-60
2021/07/23 10:46:51;;;;;;;;;18.50;16.25;;;;;30.84;34.72;100559.47;4973532;28;45515;-62
2021/07/23 10:49:32;;;;;;;;;15.67;15.00;;;;;30.81;34.61;100558.09;4976458;28;45550;-61
2021/07/23 10:52:01;;;;;;;;;16.50;15.50;;;;;30.77;34.48;100552.41;4984258;28;45578;-61
2021/07/23 10:54:33;;;;;;;;;13.75;13.75;;;;;30.76;35.32;100549.94;4973259;28;46128;-61
2021/07/23 10:57:01;;;;;;;;;13.00;13.00;;;;;30.76;34.28;100545.38;4973394;28;45503;-61
2021/07/23 10:59:38;;;;;;;;;14.00;13.25;;;;;30.76;34.98;100544.53;4973196;28;45548;-61
2021/07/23 11:02:18;;;;;;;;;14.75;14.00;;;;;30.83;34.45;100534.22;4986484;28;45423;-60
2021/07/23 11:04:47;;;;;;;;;16.00;14.75;;;;;30.97;35.40;100533.69;4981823;28;46343;-60
2021/07/23 11:07:12;;;;;;;;;17.50;17.00;;;;;31.11;34.75;100528.50;4977177;28;51671;-61